»·PEaware :: N516TT KSAC-KPDX

N516TT :: KSAC-KPDX

FLIGHT INFORMATION

Flight Status: Arrived
Operator: Privately registered:
United States
More flights under this callsign
Pilot: Gareth S. (19921)
Aircraft: Unknown
(LEG2)
More flights by this aircraft type
Origin: KSAC Sacramento Executive
United States
Destination: KPDX Portland Intl
United States
More flights between these airports :: More routes between these airports
Route: +CAPTO V23 GRIDD T261 GONGS V195 RBL V23 OED V448 MULES
File this flight plan on PilotEdge
Remarks:
Altitude:
(Current/Filed)
16,000ft
Speed:
(Current/Filed)
200kts
Departed: 05-Jul-20 10:24 AM
Arrived: 05-Jul-20 01:09 PM
Distance/Time
Traveled:
427nm/2:45
Distance/Time
To Go:
Arrived

Flight Plot

Page will automatically refresh every two minutes.


Map Options




Map Legend


Flown Route
Filed Route
Departure Airport
Arrival Airport
Navaid (VOR, NDB)
Fix

Horizontal Profiles

Position Reports

Time Latitude Longitude Heading Altitude Ground
Speed
05-Jul-20 10:04 38.519949 -121.493688 235 23ft 0kts
05-Jul-20 10:05 38.519949 -121.493688 235 23ft 0kts
05-Jul-20 10:06 38.519949 -121.493688 235 23ft 0kts
05-Jul-20 10:07 38.519949 -121.493688 235 23ft 0kts
05-Jul-20 10:08 38.519949 -121.493688 235 23ft 0kts
05-Jul-20 10:09 38.519949 -121.493688 235 23ft 0kts
05-Jul-20 10:10 38.519949 -121.493688 235 23ft 0kts
05-Jul-20 10:11 38.519949 -121.493688 235 23ft 0kts
05-Jul-20 10:12 38.519949 -121.493688 235 23ft 0kts
05-Jul-20 10:13 38.519949 -121.493688 235 23ft 0kts
05-Jul-20 10:14 38.519949 -121.493688 235 23ft 0kts
05-Jul-20 10:15 38.519949 -121.493688 235 23ft 0kts
05-Jul-20 10:16 38.519949 -121.493688 235 23ft 0kts
05-Jul-20 10:16 38.519949 -121.493688 235 23ft 0kts
05-Jul-20 10:18 38.519949 -121.493688 235 23ft 0kts
05-Jul-20 10:19 38.519949 -121.493688 235 23ft 0kts
05-Jul-20 10:19 38.519925 -121.493733 235 23ft 0kts
05-Jul-20 10:21 38.519369 -121.491549 100 24ft 8kts
05-Jul-20 10:21 38.519181 -121.490265 105 24ft 0kts
05-Jul-20 10:22 38.518952 -121.489416 166 25ft 9kts
05-Jul-20 10:24 38.501301 -121.518264 263 657ft 148kts
05-Jul-20 10:24 38.497978 -121.560336 263 1973ft 143kts
05-Jul-20 10:25 38.497782 -121.607786 314 3535ft 132kts
05-Jul-20 10:26 38.536531 -121.613110 355 4846ft 144kts
05-Jul-20 10:27 38.576600 -121.616043 352 6497ft 148kts
05-Jul-20 10:28 38.618371 -121.619700 352 8110ft 153kts
05-Jul-20 10:29 38.661339 -121.623546 351 9671ft 158kts
05-Jul-20 10:30 38.704809 -121.634792 339 11093ft 162kts
05-Jul-20 10:31 38.748744 -121.648958 338 12394ft 165kts
05-Jul-20 10:32 38.793889 -121.663363 338 13606ft 168kts
05-Jul-20 10:33 38.839504 -121.678046 337 14709ft 171kts
05-Jul-20 10:34 38.885971 -121.692887 336 15723ft 174kts
05-Jul-20 10:35 38.936841 -121.709332 338 16003ft 208kts
05-Jul-20 10:36 38.998468 -121.729068 339 16002ft 240kts
05-Jul-20 10:37 39.063184 -121.749641 339 16002ft 243kts
05-Jul-20 10:38 39.128359 -121.770709 339 16000ft 244kts
05-Jul-20 10:39 39.194289 -121.792039 339 15991ft 244kts
05-Jul-20 10:40 39.260177 -121.813411 339 15991ft 243kts
05-Jul-20 10:41 39.323631 -121.834373 336 15990ft 242kts
05-Jul-20 10:42 39.386174 -121.865551 331 15991ft 240kts
05-Jul-20 10:43 39.447956 -121.897211 331 15991ft 239kts
05-Jul-20 10:44 39.509920 -121.929167 331 15991ft 239kts
05-Jul-20 10:45 39.572097 -121.961320 331 15997ft 239kts
05-Jul-20 10:46 39.633798 -121.993276 331 15998ft 239kts
05-Jul-20 10:47 39.695668 -122.025374 331 15996ft 239kts
05-Jul-20 10:48 39.757344 -122.057484 331 15955ft 240kts
05-Jul-20 10:49 39.819402 -122.089764 331 15954ft 239kts
05-Jul-20 10:50 39.881185 -122.122061 331 15954ft 239kts
05-Jul-20 10:51 39.943095 -122.154496 331 15954ft 239kts
05-Jul-20 10:52 40.005133 -122.186887 331 15954ft 239kts
05-Jul-20 10:53 40.067038 -122.219432 331 15954ft 239kts
05-Jul-20 10:54 40.128638 -122.249754 335 15952ft 241kts
05-Jul-20 10:55 40.193093 -122.275156 335 15951ft 241kts
05-Jul-20 10:56 40.257111 -122.301654 335 15951ft 241kts
05-Jul-20 10:57 40.321715 -122.328514 335 15951ft 241kts
05-Jul-20 10:58 40.385633 -122.355125 335 15951ft 241kts
05-Jul-20 10:59 40.449466 -122.381768 335 15951ft 241kts
05-Jul-20 11:00 40.513432 -122.408545 335 15951ft 241kts
05-Jul-20 11:01 40.577582 -122.435389 335 15961ft 241kts
05-Jul-20 11:02 40.641336 -122.462156 335 15960ft 241kts
05-Jul-20 11:03 40.705088 -122.488977 336 15961ft 241kts
05-Jul-20 11:04 40.768864 -122.515873 336 15961ft 241kts
05-Jul-20 11:05 40.832610 -122.542800 336 15961ft 241kts
05-Jul-20 11:06 40.896281 -122.569708 336 15961ft 241kts
05-Jul-20 11:07 40.960681 -122.597070 336 15961ft 241kts
05-Jul-20 11:08 41.023884 -122.623894 336 16020ft 240kts
05-Jul-20 11:09 41.087434 -122.651001 335 15962ft 243kts
05-Jul-20 11:10 41.150960 -122.678113 335 15964ft 242kts
05-Jul-20 11:11 41.215171 -122.705498 335 15963ft 242kts
05-Jul-20 11:12 41.248284 -122.719616 336 15842ft 246kts
05-Jul-20 11:41 41.074308 -122.751837 318 7676ft 150kts
05-Jul-20 11:42 41.106911 -122.787035 319 9433ft 154kts
05-Jul-20 11:43 41.140622 -122.822618 317 11030ft 156kts
05-Jul-20 11:44 41.174835 -122.858808 315 12453ft 158kts
05-Jul-20 11:45 41.209469 -122.895272 314 13737ft 160kts
05-Jul-20 11:46 41.244314 -122.932237 313 14872ft 161kts
05-Jul-20 11:47 41.279433 -122.969355 312 15848ft 161kts
05-Jul-20 11:48 41.316667 -123.008878 313 16003ft 174kts
05-Jul-20 11:49 41.357495 -123.033857 12 16004ft 202kts
05-Jul-20 11:50 41.355638 -122.970855 156 15853ft 202kts
05-Jul-20 11:51 41.306225 -122.938049 188 15845ft 188kts
05-Jul-20 11:52 41.286795 -122.983865 299 15843ft 178kts
05-Jul-20 11:53 41.334427 -122.977070 56 15842ft 220kts
05-Jul-20 11:54 41.383829 -122.952813 355 15847ft 213kts
05-Jul-20 11:55 41.447438 -122.949779 355 15845ft 239kts
05-Jul-20 11:56 41.515484 -122.947173 355 15844ft 248kts
05-Jul-20 11:57 41.585004 -122.944695 355 15844ft 250kts
05-Jul-20 11:58 41.654568 -122.942229 355 15845ft 251kts
05-Jul-20 11:59 41.725114 -122.939754 355 15805ft 253kts
05-Jul-20 12:00 41.795466 -122.937242 356 15799ft 252kts
05-Jul-20 12:01 41.865269 -122.934720 356 15799ft 251kts
05-Jul-20 12:02 41.934444 -122.932034 356 15799ft 248kts
05-Jul-20 12:04 42.003499 -122.929806 356 15799ft 247kts
05-Jul-20 12:05 42.072666 -122.927326 356 15799ft 247kts
05-Jul-20 12:06 42.141306 -122.924866 356 15798ft 246kts
05-Jul-20 12:07 42.209602 -122.922353 356 15799ft 246kts
05-Jul-20 12:08 42.278162 -122.919926 356 15798ft 246kts
05-Jul-20 12:09 42.346744 -122.917425 356 15798ft 246kts
05-Jul-20 12:10 42.415311 -122.914899 356 15798ft 246kts
05-Jul-20 12:11 42.483054 -122.916308 339 15796ft 239kts
05-Jul-20 12:12 42.543121 -122.952021 330 15798ft 236kts
05-Jul-20 12:13 42.602621 -122.988784 330 15989ft 229kts
05-Jul-20 12:14 42.645513 -123.015510 330 15809ft 239kts
05-Jul-20 12:15 42.704034 -123.051777 330 16019ft 229kts
05-Jul-20 12:16 42.763662 -123.088955 330 16015ft 234kts
05-Jul-20 12:17 42.823293 -123.126245 330 16018ft 235kts
05-Jul-20 12:18 42.883095 -123.163584 330 16018ft 236kts
05-Jul-20 12:19 42.942870 -123.201088 330 16018ft 235kts
05-Jul-20 12:20 43.002367 -123.238478 330 16018ft 236kts
05-Jul-20 12:21 43.062239 -123.276096 331 16018ft 236kts
05-Jul-20 12:21 43.111787 -123.307346 331 16016ft 236kts
05-Jul-20 12:23 43.182348 -123.349393 344 16013ft 238kts
05-Jul-20 12:23 43.238634 -123.348647 359 16017ft 244kts
05-Jul-20 12:24 43.306524 -123.342701 359 16017ft 245kts
05-Jul-20 12:25 43.374601 -123.337979 359 16016ft 244kts
05-Jul-20 12:26 43.442219 -123.333246 359 16017ft 244kts
05-Jul-20 12:27 43.510507 -123.326658 3 16017ft 245kts
05-Jul-20 12:28 43.578135 -123.314356 3 16017ft 246kts
05-Jul-20 12:29 43.645935 -123.302812 3 16017ft 245kts
05-Jul-20 12:30 43.713451 -123.291464 3 16017ft 245kts
05-Jul-20 12:31 43.781490 -123.280027 3 16017ft 245kts
05-Jul-20 12:32 43.849116 -123.268613 3 16017ft 245kts
05-Jul-20 12:33 43.916372 -123.257239 3 16018ft 245kts
05-Jul-20 12:34 43.984146 -123.245773 3 16018ft 245kts
05-Jul-20 12:35 44.052048 -123.234088 4 16018ft 245kts
05-Jul-20 12:36 44.119541 -123.220808 15 16016ft 247kts
05-Jul-20 12:37 44.180484 -123.175136 28 16018ft 250kts
05-Jul-20 12:38 44.240334 -123.126528 28 16021ft 249kts
05-Jul-20 12:39 44.300526 -123.077877 28 16022ft 250kts
05-Jul-20 12:40 44.360633 -123.029342 28 16004ft 250kts
05-Jul-20 12:41 44.421088 -122.980335 28 16004ft 250kts
05-Jul-20 12:42 44.481354 -122.931370 28 16004ft 250kts
05-Jul-20 12:43 44.541466 -122.882475 27 16004ft 251kts
05-Jul-20 12:44 44.601577 -122.833409 28 16005ft 251kts
05-Jul-20 12:45 44.661987 -122.784022 28 16005ft 251kts
05-Jul-20 12:46 44.722231 -122.734281 28 15357ft 241kts
05-Jul-20 12:47 44.778464 -122.687749 28 14557ft 230kts
05-Jul-20 12:48 44.833858 -122.642144 28 13591ft 231kts
05-Jul-20 12:49 44.892620 -122.614233 352 12576ft 227kts
05-Jul-20 12:50 44.955966 -122.611284 0 11584ft 227kts
05-Jul-20 12:51 45.017722 -122.608491 359 10584ft 219kts
05-Jul-20 12:52 45.077892 -122.606890 359 9590ft 216kts
05-Jul-20 12:53 45.134697 -122.605881 359 8597ft 198kts
05-Jul-20 12:54 45.187960 -122.604618 359 7608ft 179kts
05-Jul-20 12:55 45.237166 -122.603586 359 6439ft 177kts
05-Jul-20 12:56 45.286365 -122.602326 359 5244ft 177kts
05-Jul-20 12:57 45.330363 -122.601598 358 5013ft 158kts
05-Jul-20 12:58 45.371754 -122.600744 358 5013ft 152kts
05-Jul-20 12:59 45.410737 -122.599662 0 4276ft 145kts
05-Jul-20 13:00 45.444474 -122.598643 358 3078ft 126kts
05-Jul-20 13:01 45.470009 -122.598697 353 3015ft 100kts
05-Jul-20 13:02 45.501793 -122.598275 358 3007ft 122kts
05-Jul-20 13:03 45.533892 -122.598048 359 2052ft 114kts
05-Jul-20 13:04 45.558416 -122.598006 357 1070ft 97kts
05-Jul-20 13:05 45.579153 -122.607360 298 1019ft 90kts
05-Jul-20 13:06 45.598031 -122.627363 35 529ft 78kts
05-Jul-20 13:07 45.594588 -122.594981 110 80ft 82kts
05-Jul-20 13:08 45.586996 -122.576136 136 28ft 6kts
05-Jul-20 13:09 45.585995 -122.576590 207 26ft 9kts
05-Jul-20 13:10 45.584644 -122.576972 170 24ft 5kts
05-Jul-20 13:11 45.584421 -122.576917 169 24ft 0kts
05-Jul-20 13:12 45.584421 -122.576917 169 24ft 0kts
05-Jul-20 13:13 45.584421 -122.576917 169 24ft 0kts

Navigation Log

Ident Type
Flight plan parsing failed, navigation log unavailable